ěÝzenÝ letovÚho provozu ╚eskÚ republiky
OPMET data - Ceska Republika Aktualizace: 29.07.2021 13:01:29  UTC
SIGMET / AIRMET - NIL
Warning / Vystraha - NIL
AIREP - NIL
REG QNH
REGIONAL QNH FORECAST ISSUED 2021-07-29 11:43 AREA VALID FM/TL QNH/HPA/ : LKAA 291200/291500 1011 =
 
METAR / SPECI
METAR LKBC 291300Z AUTO VRB12G29KT 9999 FEW056 24/11 Q1015=
METAR LKCV 291300Z 28011KT CAVOK 24/12 Q1013 NOSIG RMK BLU BLU=
METAR LKKB 291300Z 22012KT 190V260 CAVOK 24/11 Q1013 NOSIG RMK BLU BLU=
METAR LKKU NIL
METAR LKKV 291300Z 25009KT 190V300 9999 SCT049 21/10 Q1014 RMK REG QNH 1011=
METAR LKLN 291300Z AUTO 24013KT 210V270 9999 FEW061 25/12 Q1014=
METAR LKMT 291300Z 23009KT CAVOK 26/16 Q1014 NOSIG RMK REG QNH 1011=
METAR LKNA 291300Z 27010KT 230V300 CAVOK 25/13 Q1015 NOSIG RMK BLU BLU=
METAR LKPD 291300Z 24009KT CAVOK 26/12 Q1013 NOSIG RMK BLU BLU=
METAR LKPJ 291300Z AUTO 28011KT 9999 FEW066/// 26/13 Q1014=
METAR LKPR 291300Z 24013KT 210V270 CAVOK 25/10 Q1014 NOSIG RMK REG QNH 1011=
METAR LKTB 291300Z 26010KT CAVOK 27/11 Q1014 NOSIG RMK REG QNH 1011=
METAR LKVO 291300Z 27010KT CAVOK 25/10 Q1013=
TAF
TAF LKBC NIL
TAF LKCV 291100Z 2912/3012 26012KT CAVOK      TEMPO 2912/2916 26018KT      BECMG 2918/2921 VRB02KT      BECMG 3009/3012 26007KT=
TAF LKKB 291100Z 2912/3012 24014KT CAVOK      TEMPO 2912/2918 26022KT      BECMG 2918/2920 22005KT=
TAF LKKU NIL
TAF LKKV 291100Z 2912/3018 24008KT CAVOK      TEMPO 2912/2919 26010G22KT 9999 SCT036      TEMPO 3003/3008 VRB02KT      TEMPO 3012/3017 26010G22KT 9999 SCT036=
TAF LKLN NIL
TAF LKMT 291100Z 2912/3018 22008KT CAVOK      TEMPO 2912/2917 23012G22KT 9999 SCT040      BECMG 2917/2919 21004KT      TEMPO 3009/3017 19012G22KT 9999 SCT036=
TAF LKNA 291100Z 2912/3012 28010KT CAVOK      TEMPO 2912/2914 9999 BKN040      BECMG 2918/2920 34004KT=
TAF LKPD 291100Z 2912/3012 26012KT CAVOK      TEMPO 2912/2916 28018KT      BECMG 2917/2919 25006KT      BECMG 2923/3001 VRB02KT      BECMG 3009/3011 30007KT=
TAF LKPJ NIL
TAF LKPR 291100Z 2912/3018 22008KT CAVOK      TEMPO 2912/2918 24012G22KT 9999 SCT040      BECMG 3000/3002 22006KT=
TAF LKTB 291100Z 2912/3018 18008KT CAVOK      TEMPO 2912/2916 9999 SCT040      TEMPO 2919/3006 VRB02KT=
TAF LKVO NIL